Time;durP1;ratioP1;P1;durP2;ratioP2;P2;SDS_P1;SDS_P2;PMS_P1;PMS_P2;Temp;Humidity;BMP_temperature;BMP_pressure;BME280_temperature;BME280_humidity;BME280_pressure;Samples;Min_cycle;Max_cycle;Signal;HPM_P1;HPM_P2
2023/10/11 00:01:48;;;;;;;3.33;2.15;;;;;;;;;;5012532;28;20078;-71
2023/10/11 00:04:23;;;;;;;3.55;2.30;;;;;;;;;;5012801;28;20038;-71
2023/10/11 00:06:56;;;;;;;5.80;2.55;;;22.30;80.80;;;;;;5012638;28;20112;-71
2023/10/11 00:09:35;;;;;;;3.75;2.42;;;;;;;;;;5012935;28;20038;-71
2023/10/11 00:12:04;;;;;;;3.28;2.28;;;22.30;80.80;;;;;;5012507;28;20061;-71
2023/10/11 00:14:31;;;;;;;3.13;2.10;;;22.30;80.50;;;;;;5012755;28;20048;-71
2023/10/11 00:16:57;;;;;;;6.30;2.33;;;;;;;;;;5012515;28;20061;-71
2023/10/11 00:19:28;;;;;;;3.20;2.03;;;;;;;;;;5012976;28;20038;-71
2023/10/11 00:21:54;;;;;;;3.78;2.47;;;;;;;;;;5012770;28;20136;-71
2023/10/11 00:24:23;;;;;;;3.97;2.58;;;;;;;;;;5012395;28;20034;-71
2023/10/11 00:26:49;;;;;;;3.70;2.15;;;;;;;;;;5012241;28;20042;-71
2023/10/11 00:29:16;;;;;;;4.72;2.85;;;;;;;;;;5012369;28;20373;-71
2023/10/11 00:31:41;;;;;;;4.43;2.42;;;;;;;;;;5012521;28;20088;-71
2023/10/11 00:34:12;;;;;;;4.15;2.35;;;;;;;;;;5012192;28;20542;-71
2023/10/11 00:36:39;;;;;;;4.43;2.60;;;;;;;;;;5012144;28;20053;-71
2023/10/11 00:39:07;;;;;;;4.00;2.50;;;;;;;;;;5012122;28;20037;-71
2023/10/11 00:41:39;;;;;;;4.13;2.42;;;22.20;81.20;;;;;;5012328;28;20108;-71
2023/10/11 00:44:06;;;;;;;4.05;2.35;;;;;;;;;;5012043;28;20041;-71
2023/10/11 00:46:50;;;;;;;3.10;2.33;;;22.10;78.80;;;;;;5011844;28;20045;-71
2023/10/11 00:49:17;;;;;;;3.38;2.45;;;;;;;;;;5012447;28;20030;-71
2023/10/11 00:51:46;;;;;;;5.88;2.75;;;22.20;81.00;;;;;;5011867;28;20045;-71
2023/10/11 00:54:15;;;;;;;5.57;2.77;;;22.10;81.00;;;;;;5012231;28;20034;-71
2023/10/11 00:56:48;;;;;;;3.72;2.17;;;22.10;75.30;;;;;;5011756;28;20049;-71
2023/10/11 00:59:15;;;;;;;3.13;2.47;;;;;;;;;;5011287;28;20042;-71
2023/10/11 01:01:42;;;;;;;3.17;2.40;;;22.10;80.90;;;;;;5011529;28;20035;-71
2023/10/11 01:04:09;;;;;;;3.47;2.20;;;;;;;;;;5011685;28;20642;-71
2023/10/11 01:06:35;;;;;;;4.80;2.50;;;;;;;;;;5011640;28;20404;-71
2023/10/11 01:09:15;;;;;;;3.97;2.33;;;;;;;;;;5011807;28;20465;-71
2023/10/11 01:11:41;;;;;;;4.82;2.75;;;;;;;;;;5011880;28;20115;-71
2023/10/11 01:14:08;;;;;;;2.65;2.30;;;;;;;;;;5011758;28;20042;-71
2023/10/11 01:16:35;;;;;;;4.13;2.63;;;;;;;;;;5012403;28;20064;-71
2023/10/11 01:19:02;;;;;;;3.90;2.60;;;;;;;;;;5011682;28;20113;-71
2023/10/11 01:21:32;;;;;;;3.60;2.45;;;;;;;;;;5011903;28;20058;-71
2023/10/11 01:23:59;;;;;;;3.92;2.67;;;;;;;;;;5011903;28;20093;-71
2023/10/11 01:26:27;;;;;;;2.83;2.40;;;;;;;;;;5011442;28;20045;-71
2023/10/11 01:28:56;;;;;;;4.00;2.60;;;;;;;;;;5011500;28;20400;-71
2023/10/11 01:31:23;;;;;;;6.82;3.08;;;;;;;;;;5011426;28;20523;-71
2023/10/11 01:33:49;;;;;;;3.20;2.20;;;;;;;;;;5011715;28;20038;-71
2023/10/11 01:36:21;;;;;;;5.28;2.72;;;;;;;;;;5011735;28;20041;-71
2023/10/11 01:38:48;;;;;;;4.28;2.65;;;;;;;;;;5011324;28;20116;-71
2023/10/11 01:41:22;;;;;;;4.32;2.97;;;22.00;75.60;;;;;;5011655;28;20030;-71
2023/10/11 01:43:50;;;;;;;2.95;2.47;;;22.00;81.10;;;;;;5011742;28;20030;-71
2023/10/11 01:46:18;;;;;;;3.53;2.35;;;22.00;81.10;;;;;;5012140;28;20084;-71
2023/10/11 01:48:45;;;;;;;3.55;2.63;;;;;;;;;;5011656;28;20026;-71
2023/10/11 01:51:25;;;;;;;6.05;3.03;;;22.00;81.20;;;;;;5011574;28;20064;-71
2023/10/11 01:54:00;;;;;;;3.70;2.58;;;22.00;81.10;;;;;;5011694;28;20029;-71
2023/10/11 01:56:27;;;;;;;5.72;2.55;;;;;;;;;;5011643;28;20041;-71
2023/10/11 01:58:56;;;;;;;4.38;2.45;;;21.90;81.30;;;;;;5011584;28;20041;-71
2023/10/11 02:01:26;;;;;;;3.25;2.78;;;21.90;81.00;;;;;;5011535;28;20085;-71
2023/10/11 02:03:56;;;;;;;4.60;2.65;;;21.90;81.00;;;;;;4992027;28;20054;-71
2023/10/11 02:06:23;;;;;;;4.30;2.88;;;21.10;78.00;;;;;;4991748;28;20065;-71
2023/10/11 02:08:53;;;;;;;4.07;2.63;;;21.70;77.90;;;;;;4991801;28;20034;-71
2023/10/11 02:11:29;;;;;;;5.30;2.50;;;21.90;78.70;;;;;;4994870;28;20096;-71
2023/10/11 02:13:57;;;;;;;3.92;2.35;;;;;;;;;;4995477;28;20085;-71
2023/10/11 02:16:24;;;;;;;5.03;2.53;;;;;;;;;;4995267;28;20117;-71
2023/10/11 02:18:58;;;;;;;3.63;2.60;;;;;;;;;;4995223;28;20041;-71
2023/10/11 02:21:25;;;;;;;2.72;2.35;;;;;;;;;;4994909;28;20405;-71
2023/10/11 02:23:51;;;;;;;4.65;2.75;;;;;;;;;;4994932;28;20037;-71
2023/10/11 02:26:17;;;;;;;4.93;2.78;;;;;;;;;;4994898;28;20047;-71
2023/10/11 02:28:45;;;;;;;5.80;2.83;;;21.80;81.20;;;;;;4995218;28;20410;-71
2023/10/11 02:31:14;;;;;;;2.67;2.30;;;;;;;;;;4995019;28;20042;-71
2023/10/11 02:33:40;;;;;;;3.20;2.88;;;;;;;;;;4994842;28;20038;-71
2023/10/11 02:36:09;;;;;;;3.95;2.72;;;;;;;;;;4994708;28;20052;-71
2023/10/11 02:38:47;;;;;;;3.40;2.50;;;21.90;78.20;;;;;;4994724;28;20038;-71
2023/10/11 02:41:13;;;;;;;4.72;2.95;;;;;;;;;;4994695;28;20497;-71
2023/10/11 02:43:47;;;;;;;6.10;2.67;;;;;;;;;;4995034;28;20046;-71
2023/10/11 02:46:13;;;;;;;2.72;2.47;;;;;;;;;;4994444;28;20576;-71
2023/10/11 02:48:45;;;;;;;3.42;2.70;;;;;;;;;;4994370;28;20065;-71
2023/10/11 02:51:13;;;;;;;2.42;2.15;;;;;;;;;;4994418;28;20569;-71
2023/10/11 02:53:43;;;;;;;3.03;2.70;;;;;;;;;;4994426;28;20374;-71
2023/10/11 02:56:09;;;;;;;3.40;2.30;;;;;;;;;;4994362;28;20062;-71
2023/10/11 02:58:39;;;;;;;3.53;2.33;;;;;;;;;;4994283;28;20031;-71
2023/10/11 03:01:05;;;;;;;3.92;3.05;;;;;;;;;;4994221;28;20085;-71
2023/10/11 03:03:38;;;;;;;3.50;2.60;;;;;;;;;;5011211;28;20085;-71
2023/10/11 03:06:07;;;;;;;4.07;2.50;;;;;;;;;;5013633;28;20049;-71
2023/10/11 03:08:34;;;;;;;3.35;2.50;;;;;;;;;;5014018;28;20045;-71
2023/10/11 03:11:04;;;;;;;3.88;2.60;;;;;;;;;;5014196;28;20042;-71
2023/10/11 03:13:30;;;;;;;4.47;2.90;;;;;;;;;;5013637;28;20392;-71
2023/10/11 03:15:58;;;;;;;2.88;2.45;;;21.80;81.10;;;;;;5013555;28;20048;-71
2023/10/11 03:18:32;;;;;;;3.97;2.92;;;21.80;75.70;;;;;;5014064;28;20025;-71
2023/10/11 03:21:08;;;;;;;3.83;2.72;;;21.80;81.30;;;;;;5013177;28;20083;-71
2023/10/11 03:23:44;;;;;;;3.50;2.40;;;21.70;81.20;;;;;;5013438;28;20100;-71
2023/10/11 03:26:23;;;;;;;4.05;2.60;;;;;;;;;;5013408;28;20042;-71
2023/10/11 03:28:57;;;;;;;3.42;2.60;;;21.80;75.90;;;;;;5013379;28;20038;-71
2023/10/11 03:31:31;;;;;;;3.17;2.47;;;21.70;76.10;;;;;;5013626;28;20046;-71
2023/10/11 03:33:57;;;;;;;4.65;2.72;;;;;;;;;;5013252;28;20037;-71
2023/10/11 03:36:34;;;;;;;3.35;2.63;;;21.70;81.40;;;;;;5013398;28;20038;-71
2023/10/11 03:39:08;;;;;;;3.08;2.75;;;;;;;;;;5013624;28;20030;-71
2023/10/11 03:41:35;;;;;;;4.43;2.70;;;;;;;;;;5013387;28;20037;-71
2023/10/11 03:44:09;;;;;;;4.90;2.20;;;;;;;;;;5012969;28;20041;-71
2023/10/11 03:46:36;;;;;;;3.53;2.72;;;;;;;;;;5012947;28;20065;-71
2023/10/11 03:51:43;;;;;;;3.40;2.42;;;;;;;;;;5012961;28;20037;-71
2023/10/11 03:54:18;;;;;;;3.95;2.65;;;21.70;74.90;;;;;;5012952;28;20030;-71
2023/10/11 03:56:45;;;;;;;4.20;2.58;;;;;;;;;;5012877;28;20481;-71
2023/10/11 03:59:12;;;;;;;2.35;2.15;;;21.60;80.30;;;;;;5013014;28;20030;-71
2023/10/11 04:01:39;;;;;;;2.92;2.42;;;;;;;;;;5012852;28;20539;-72
2023/10/11 04:04:05;;;;;;;3.45;3.00;;;;;;;;;;5012728;28;20038;-71
2023/10/11 04:06:34;;;;;;;3.97;3.00;;;;;;;;;;5012900;28;20382;-72
2023/10/11 04:09:03;;;;;;;4.18;2.92;;;;;;;;;;5013182;28;20030;-71
2023/10/11 04:11:54;;;;;;;3.45;2.47;;;21.60;75.80;;;;;;5012624;28;20038;-71
2023/10/11 04:14:25;;;;;;;5.15;3.08;;;21.70;79.80;;;;;;5012908;28;20469;-71
2023/10/11 04:16:56;;;;;;;3.47;2.55;;;21.60;78.30;;;;;;5012836;28;20476;-71
2023/10/11 04:19:22;;;;;;;5.82;2.53;;;;;;;;;;5012520;28;20536;-71
2023/10/11 04:24:19;;;;;;;5.97;2.85;;;;;;;;;;5012199;28;20123;-71
2023/10/11 04:27:45;;;;;;;5.32;2.90;;;21.50;76.00;;;;;;5012613;28;20053;-71
2023/10/11 04:29:44;;;;;;;5.22;3.25;;;;;;;;;;5012042;28;20460;-71
2023/10/11 04:32:14;;;;;;;3.15;2.40;;;;;;;;;;5012405;28;20084;-71
2023/10/11 04:34:48;;;;;;;3.65;3.15;;;21.50;80.70;;;;;;5012468;28;20045;-71
2023/10/11 04:37:27;;;;;;;3.95;2.65;;;21.50;76.00;;;;;;5013106;28;20034;-71
2023/10/11 04:39:56;;;;;;;5.82;3.10;;;21.50;81.50;;;;;;5012263;28;20042;-71
2023/10/11 04:42:29;;;;;;;5.37;3.10;;;;;;;;;;5012451;28;20026;-72
2023/10/11 04:44:56;;;;;;;3.60;2.70;;;;;;;;;;5011983;28;20308;-71
2023/10/11 04:47:27;;;;;;;5.80;2.88;;;;;;;;;;5012308;28;20042;-71
2023/10/11 04:49:54;;;;;;;4.70;2.90;;;;;;;;;;5012059;28;20117;-71
2023/10/11 04:52:23;;;;;;;5.43;3.20;;;;;;;;;;5011881;28;20057;-71
2023/10/11 04:54:55;;;;;;;3.70;2.88;;;20.70;80.10;;;;;;5012084;28;20030;-71
2023/10/11 04:58:21;;;;;;;3.67;2.33;;;21.40;81.50;;;;;;5012042;28;20121;-71
2023/10/11 05:00:17;;;;;;;3.07;2.70;;;;;;;;;;5001037;28;20033;-71
2023/10/11 05:02:44;;;;;;;3.70;2.60;;;;;;;;;;5011616;28;20070;-71
2023/10/11 05:05:21;;;;;;;3.45;2.55;;;;;;;;;;5012327;28;20412;-71
2023/10/11 05:07:47;;;;;;;3.67;3.17;;;;;;;;;;5011743;28;20437;-71
2023/10/11 05:12:46;;;;;;;3.67;2.80;;;;;;;;;;5012080;28;20038;-70
2023/10/11 05:15:15;;;;;;;3.60;2.53;;;;;;;;;;5011914;28;20505;-71
2023/10/11 05:17:44;;;;;;;4.55;2.65;;;21.40;79.60;;;;;;5011824;28;20034;-71
2023/10/11 05:32:49;;;;;;;4.07;2.90;;;;;;;;;;5017854;28;20293;-72
2023/10/11 05:52:09;;;;;;;7.13;3.22;;;;;;;;;;5015808;28;20112;-71
2023/10/11 05:54:36;;;;;;;4.93;2.90;;;;;;;;;;5015220;28;20395;-71
2023/10/11 05:57:06;;;;;;;3.78;3.05;;;;;;;;;;5015318;28;20041;-71
2023/10/11 05:59:35;;;;;;;6.13;2.97;;;21.30;80.40;;;;;;5014877;28;20049;-71
2023/10/11 06:02:07;;;;;;;6.43;3.67;;;21.30;82.00;;;;;;5014852;28;20049;-72
2023/10/11 06:04:39;;;;;;;3.97;3.08;;;;;;;;;;5014869;28;20548;-71
2023/10/11 06:07:06;;;;;;;4.90;2.97;;;21.30;79.90;;;;;;5014700;28;20563;-70
2023/10/11 06:09:39;;;;;;;7.15;3.33;;;;;;;;;;5014673;28;20104;-70
2023/10/11 06:12:10;;;;;;;4.72;3.05;;;;;;;;;;5015156;28;20049;-71
2023/10/11 06:14:36;;;;;;;7.53;3.30;;;;;;;;;;5015051;28;20054;-71
2023/10/11 06:17:05;;;;;;;4.15;2.88;;;;;;;;;;5014720;28;20065;-71
2023/10/11 06:19:34;;;;;;;4.78;2.70;;;21.20;77.10;;;;;;5014713;28;20030;-71
2023/10/11 06:22:06;;;;;;;7.78;3.55;;;;;;;;;;5014871;28;20045;-71
2023/10/11 06:24:39;;;;;;;5.97;3.15;;;21.30;79.10;;;;;;5014551;28;20069;-71
2023/10/11 06:29:46;;;;;;;4.50;3.75;;;21.30;79.60;;;;;;5014644;28;20443;-71
2023/10/11 06:32:12;;;;;;;5.70;3.50;;;;;;;;;;5014674;28;20053;-71
2023/10/11 06:34:38;;;;;;;4.45;3.30;;;21.20;79.50;;;;;;5014478;28;20519;-71
2023/10/11 06:37:07;;;;;;;6.65;3.47;;;;;;;;;;5014512;28;20041;-71
2023/10/11 06:39:34;;;;;;;7.88;3.33;;;;;;;;;;5014369;28;20547;-71
2023/10/11 06:42:13;;;;;;;6.13;3.83;;;21.20;76.90;;;;;;5014714;28;20033;-71
2023/10/11 06:44:41;;;;;;;5.85;3.63;;;21.20;82.50;;;;;;5014428;28;20022;-71
2023/10/11 06:47:11;;;;;;;6.07;3.58;;;;;;;;;;5014227;28;20049;-71
2023/10/11 06:49:40;;;;;;;5.22;3.50;;;;;;;;;;5014662;28;20045;-70
2023/10/11 06:52:11;;;;;;;7.22;3.70;;;21.20;77.00;;;;;;5014103;28;20137;-70
2023/10/11 06:54:38;;;;;;;4.65;3.38;;;;;;;;;;5014112;28;20065;-70
2023/10/11 06:57:07;;;;;;;7.93;3.92;;;;;;;;;;5012827;28;20044;-70
2023/10/11 06:59:33;;;;;;;4.43;3.53;;;;;;;;;;5014061;28;20074;-70
2023/10/11 07:01:59;;;;;;;6.72;4.00;;;;;;;;;;5013773;28;20408;-70
2023/10/11 07:04:36;;;;;;;7.13;4.00;;;;;;;;;;5014251;28;20440;-70
2023/10/11 07:07:07;;;;;;;7.57;3.88;;;;;;;;;;5014195;28;20465;-70
2023/10/11 07:09:33;;;;;;;5.43;3.50;;;;;;;;;;5014057;28;20047;-70
2023/10/11 07:12:28;;;;;;;6.78;3.60;;;21.20;82.60;;;;;;5013711;28;20380;-70
2023/10/11 07:14:54;;;;;;;6.88;3.50;;;;;;;;;;5014063;28;20050;-70
2023/10/11 07:17:21;;;;;;;5.22;3.35;;;;;;;;;;5014221;28;20500;-70
2023/10/11 07:19:50;;;;;;;5.65;3.70;;;21.20;82.90;;;;;;5013621;28;20117;-71
2023/10/11 07:22:18;;;;;;;5.65;3.65;;;;;;;;;;5013585;28;20037;-70
2023/10/11 07:24:45;;;;;;;8.85;3.10;;;;;;;;;;4996419;28;20030;-70
2023/10/11 07:27:26;;;;;;;6.75;3.42;;;;;;;;;;5013490;28;20481;-70
2023/10/11 07:29:54;;;;;;;5.95;3.60;;;;;;;;;;5013799;28;20042;-70
2023/10/11 07:32:21;;;;;;;6.97;4.28;;;;;;;;;;5013386;28;20058;-70
2023/10/11 07:34:54;;;;;;;7.93;3.90;;;;;;;;;;5013266;28;20038;-70
2023/10/11 07:37:26;;;;;;;7.10;3.70;;;;;;;;;;5013594;28;20042;-70
2023/10/11 07:40:00;;;;;;;7.13;3.67;;;;;;;;;;5013173;28;20113;-70
2023/10/11 07:42:28;;;;;;;6.95;3.65;;;;;;;;;;5013231;28;20030;-70
2023/10/11 07:44:56;;;;;;;5.43;3.70;;;21.10;81.20;;;;;;5013246;28;20052;-70
2023/10/11 07:47:25;;;;;;;7.40;3.83;;;;;;;;;;5013561;28;20096;-70
2023/10/11 07:49:54;;;;;;;10.10;3.93;;;;;;;;;;5013244;28;20037;-70
2023/10/11 07:52:22;;;;;;;7.20;4.32;;;;;;;;;;5013081;28;20074;-70
2023/10/11 07:54:51;;;;;;;9.48;4.38;;;;;;;;;;5013202;28;20030;-70
2023/10/11 07:57:19;;;;;;;7.63;4.18;;;;;;;;;;5013376;28;20509;-70
2023/10/11 07:59:51;;;;;;;7.20;4.28;;;;;;;;;;5012984;28;20038;-70
2023/10/11 08:02:26;;;;;;;7.53;4.05;;;;;;;;;;5012713;28;20125;-70
2023/10/11 08:04:57;;;;;;;5.32;3.85;;;21.10;80.40;;;;;;5012716;28;20065;-70
2023/10/11 08:07:23;;;;;;;8.77;4.70;;;;;;;;;;5012661;28;20101;-70
2023/10/11 08:09:55;;;;;;;8.27;4.55;;;;;;;;;;5013039;28;20105;-70
2023/10/11 08:12:23;;;;;;;7.40;4.75;;;21.10;83.50;;;;;;5013015;28;20049;-70
2023/10/11 08:14:53;;;;;;;7.53;5.10;;;;;;;;;;5013501;28;20038;-70
2023/10/11 08:17:21;;;;;;;8.93;4.68;;;21.10;83.40;;;;;;5012816;28;20074;-70
2023/10/11 08:19:53;;;;;;;5.95;4.40;;;21.10;83.60;;;;;;5012689;28;20089;-70
2023/10/11 08:22:20;;;;;;;5.30;4.70;;;;;;;;;;5012839;28;20030;-70
2023/10/11 08:24:49;;;;;;;8.13;4.15;;;;;;;;;;5012426;28;20038;-71
2023/10/11 08:27:28;;;;;;;8.32;4.53;;;21.10;83.80;;;;;;5012613;28;20050;-70
2023/10/11 08:30:18;;;;;;;6.78;5.20;;;21.10;83.70;;;;;;5012705;28;20057;-70
2023/10/11 08:32:47;;;;;;;9.90;4.87;;;;;;;;;;5012596;28;20053;-70
2023/10/11 08:35:26;;;;;;;8.98;5.47;;;21.10;83.40;;;;;;5012281;28;20295;-70
2023/10/11 08:37:53;;;;;;;6.85;4.97;;;;;;;;;;5012617;28;20040;-70
2023/10/11 08:40:21;;;;;;;8.32;5.22;;;;;;;;;;5012434;28;20042;-70
2023/10/11 08:42:52;;;;;;;9.70;4.65;;;21.20;83.80;;;;;;5012725;28;20089;-71
2023/10/11 08:46:09;;;;;;;8.07;5.25;;;21.10;78.80;;;;;;5012089;28;20046;-70
2023/10/11 08:48:38;;;;;;;6.53;4.82;;;;;;;;;;5012118;28;20516;-70
2023/10/11 08:51:10;;;;;;;8.60;5.80;;;21.10;83.80;;;;;;5011947;28;20076;-70
2023/10/11 08:54:00;;;;;;;8.18;5.70;;;21.10;83.90;;;;;;5012141;28;20485;-70
2023/10/11 08:56:26;;;;;;;7.72;5.45;;;;;;;;;;5012381;28;20030;-70
2023/10/11 08:58:53;;;;;;;10.23;5.78;;;;;;;;;;5011984;28;20171;-70
2023/10/11 09:01:24;;;;;;;11.07;5.43;;;21.10;81.50;;;;;;5012236;28;20077;-70
2023/10/11 09:04:15;;;;;;;7.80;5.78;;;21.10;84.00;;;;;;5011974;28;20112;-70
2023/10/11 09:06:59;;;;;;;8.65;4.97;;;;;;;;;;5009754;28;20052;-70
2023/10/11 09:09:39;;;;;;;10.25;5.47;;;21.10;78.60;;;;;;5012065;28;20030;-70
2023/10/11 09:12:24;;;;;;;7.35;5.25;;;21.10;84.10;;;;;;5012396;28;20513;-70
2023/10/11 09:15:07;;;;;;;9.60;5.50;;;;;;;;;;5010242;28;20042;-70
2023/10/11 09:17:38;;;;;;;11.70;5.43;;;;;;;;;;5012022;28;20403;-70
2023/10/11 09:23:03;;;;;;;10.93;5.47;;;;;;;;;;4988614;28;20046;-70
2023/10/11 09:25:33;;;;;;;11.18;5.82;;;;;;;;;;5016014;28;20117;-70
2023/10/11 09:27:59;;;;;;;9.48;5.28;;;;;;;;;;5015976;28;20033;-70
2023/10/11 09:30:27;;;;;;;10.57;5.90;;;;;;;;;;5015764;28;20057;-70
2023/10/11 09:32:59;;;;;;;7.88;5.40;;;21.10;84.40;;;;;;5015909;28;20433;-70
2023/10/11 09:35:27;;;;;;;10.82;5.68;;;21.10;84.30;;;;;;5015927;28;20165;-70
2023/10/11 09:37:58;;;;;;;8.98;5.47;;;21.20;84.60;;;;;;5015623;28;20034;-70
2023/10/11 09:40:31;;;;;;;11.77;6.25;;;21.10;81.90;;;;;;5015994;28;20042;-70
2023/10/11 09:43:01;;;;;;;9.73;5.38;;;21.10;84.40;;;;;;5015527;28;20245;-70
2023/10/11 09:45:29;;;;;;;;;;;21.10;85.60;;;;;;5015830;28;20085;-70
2023/10/11 09:47:56;;;;;;;10.77;5.45;;;21.10;84.50;;;;;;5015370;28;19924;-71
2023/10/11 09:50:24;;;;;;;7.75;5.57;;;21.10;84.60;;;;;;5015364;28;20030;-70
2023/10/11 09:52:53;;;;;;;9.23;5.90;;;21.00;78.90;;;;;;5015346;28;20041;-70
2023/10/11 09:55:31;;;;;;;9.13;4.95;;;21.10;85.00;;;;;;5015254;28;20038;-70
2023/10/11 09:58:11;;;;;;;8.45;5.70;;;21.10;79.30;;;;;;5015402;28;20381;-70
2023/10/11 10:00:47;;;;;;;7.43;5.22;;;21.20;84.60;;;;;;5015036;28;20096;-70
2023/10/11 10:03:14;;;;;;;8.90;5.43;;;;;;;;;;5014807;28;20536;-70
2023/10/11 10:06:05;;;;;;;10.20;5.53;;;21.10;79.20;;;;;;5015276;28;20156;-70
2023/10/11 10:08:32;;;;;;;9.10;5.97;;;;;;;;;;5015596;28;20037;-70
2023/10/11 10:10:58;;;;;;;8.35;5.60;;;;;;;;;;5015031;28;20159;-70
2023/10/11 10:13:25;;;;;;;12.90;5.65;;;;;;;;;;5014782;28;20524;-70
2023/10/11 10:15:57;;;;;;;9.57;5.32;;;;;;;;;;5015063;28;20029;-70
2023/10/11 10:18:24;;;;;;;8.45;5.18;;;;;;;;;;5015129;28;20042;-69
2023/10/11 10:21:04;;;;;;;10.43;5.10;;;21.20;79.50;;;;;;5015036;28;20524;-70
2023/10/11 10:23:40;;;;;;;8.82;4.40;;;21.10;84.90;;;;;;5015080;28;20432;-70
2023/10/11 10:26:06;;;;;;;7.95;4.97;;;;;;;;;;5014986;28;20169;-71
2023/10/11 10:28:35;;;;;;;10.02;5.93;;;;;;;;;;5014499;28;20116;-71
2023/10/11 10:31:12;;;;;;;6.85;4.88;;;21.10;79.40;;;;;;5014323;28;20042;-72
2023/10/11 10:33:42;;;;;;;10.85;5.57;;;21.10;85.00;;;;;;5014557;28;20189;-71
2023/10/11 10:36:28;;;;;;;7.78;5.10;;;21.10;79.50;;;;;;5014849;28;20033;-70
2023/10/11 10:39:00;;;;;;;7.53;4.57;;;21.10;79.50;;;;;;5014559;28;20444;-70
2023/10/11 10:41:33;;;;;;;9.00;4.68;;;21.10;82.30;;;;;;5014461;28;20045;-70
2023/10/11 10:44:08;;;;;;;6.25;4.10;;;21.10;79.90;;;;;;5014470;28;20034;-70
2023/10/11 10:46:35;;;;;;;7.65;4.60;;;21.20;84.70;;;;;;5014319;28;20038;-70
2023/10/11 10:49:02;;;;;;;6.03;3.97;;;;;;;;;;5014388;28;20096;-71
2023/10/11 10:51:39;;;;;;;6.05;4.10;;;21.20;79.80;;;;;;5014295;28;20038;-70
2023/10/11 10:54:17;;;;;;;6.07;4.20;;;;;;;;;;5014548;28;20112;-70
2023/10/11 10:56:47;;;;;;;6.30;4.03;;;21.20;80.00;;;;;;5014219;28;20407;-72
2023/10/11 10:59:14;;;;;;;;;;;21.20;86.10;;;;;;5014514;28;20038;-70
2023/10/11 11:01:40;;;;;;;5.88;3.70;;;;;;;;;;5013927;28;19906;-70
2023/10/11 11:04:09;;;;;;;9.20;3.97;;;;;;;;;;5014130;28;20058;-70
2023/10/11 11:06:46;;;;;;;6.25;4.18;;;21.20;80.40;;;;;;5014316;28;20140;-70
2023/10/11 11:09:19;;;;;;;6.93;4.13;;;21.20;84.00;;;;;;5014146;28;20041;-70
2023/10/11 11:11:49;;;;;;;7.13;3.50;;;21.10;85.80;;;;;;5013842;28;20056;-70
2023/10/11 11:14:19;;;;;;;8.13;3.87;;;21.30;84.30;;;;;;5013649;28;20038;-70
2023/10/11 11:16:57;;;;;;;8.88;4.00;;;21.30;85.90;;;;;;5013804;28;20084;-70
2023/10/11 11:19:26;;;;;;;6.07;3.60;;;;;;;;;;5014153;28;20030;-70
2023/10/11 11:22:12;;;;;;;5.78;2.92;;;21.30;80.60;;;;;;5013501;28;20038;-70
2023/10/11 11:24:41;;;;;;;6.82;3.88;;;;;;;;;;5013732;28;20030;-70
2023/10/11 11:27:26;;;;;;;8.80;3.72;;;21.20;81.00;;;;;;5013739;28;20076;-70
2023/10/11 11:30:02;;;;;;;6.55;3.83;;;21.20;86.10;;;;;;5013560;28;20045;-70
2023/10/11 11:32:37;;;;;;;6.10;3.83;;;21.30;80.70;;;;;;5013510;28;20033;-70
2023/10/11 11:35:10;;;;;;;7.63;3.60;;;21.30;86.10;;;;;;5014181;28;20056;-70
2023/10/11 11:38:01;;;;;;;6.32;3.60;;;21.30;86.30;;;;;;5013439;28;20030;-70
2023/10/11 11:40:27;;;;;;;7.60;3.88;;;;;;;;;;5013621;28;20038;-70
2023/10/11 11:42:53;;;;;;;4.93;3.80;;;;;;;;;;5012464;28;20072;-70
2023/10/11 11:45:20;;;;;;;8.02;3.47;;;21.30;83.40;;;;;;5013222;28;20116;-70
2023/10/11 11:47:58;;;;;;;5.45;3.30;;;21.30;83.80;;;;;;5013436;28;20120;-72
2023/10/11 11:50:25;;;;;;;6.43;3.30;;;21.40;84.40;;;;;;5013170;28;20451;-71
2023/10/11 11:52:51;;;;;;;7.25;3.92;;;;;;;;;;5013287;28;20046;-72
2023/10/11 11:55:20;;;;;;;4.68;3.55;;;21.30;86.60;;;;;;5013096;28;20110;-70
2023/10/11 11:57:47;;;;;;;7.32;3.72;;;;;;;;;;5013033;28;20038;-71
2023/10/11 12:02:49;;;;;;;8.60;4.70;;;;;;;;;;5013175;28;20053;-69
2023/10/11 12:05:15;;;;;;;9.73;4.18;;;;;;;;;;5012829;28;20050;-70
2023/10/11 12:07:43;;;;;;;5.55;3.80;;;;;;;;;;5012823;28;20038;-71
2023/10/11 12:10:23;;;;;;;9.10;4.68;;;;;;;;;;5013000;28;20456;-70
2023/10/11 12:12:52;;;;;;;;;;;21.70;81.60;;;;;;5013527;28;20064;-70
2023/10/11 12:15:19;;;;;;;10.18;4.57;;;21.40;84.20;;;;;;5012728;28;20392;-70
2023/10/11 12:17:53;;;;;;;10.13;3.92;;;21.40;87.20;;;;;;5012642;28;20032;-70
2023/10/11 12:20:22;;;;;;;4.90;3.80;;;;;;;;;;5013004;28;20436;-69
2023/10/11 12:22:48;;;;;;;9.95;4.70;;;;;;;;;;5012684;28;20037;-69
2023/10/11 12:25:24;;;;;;;7.75;4.80;;;;;;;;;;5012443;28;20124;-69
2023/10/11 12:27:50;;;;;;;7.35;4.65;;;;;;;;;;5012502;28;20493;-69
2023/10/11 12:30:19;;;;;;;5.50;4.30;;;;;;;;;;5012979;28;20030;-69
2023/10/11 12:32:49;;;;;;;9.07;4.53;;;21.50;81.80;;;;;;5012372;28;20042;-70
2023/10/11 12:35:15;;;;;;;7.10;4.85;;;;;;;;;;5012203;28;20040;-69
2023/10/11 12:37:42;;;;;;;11.32;5.80;;;;;;;;;;5012460;28;20446;-69
2023/10/11 12:40:13;;;;;;;9.73;5.47;;;21.50;87.40;;;;;;5012201;28;20033;-69
2023/10/11 12:42:42;;;;;;;8.80;4.45;;;21.40;86.30;;;;;;5012457;28;20048;-70
2023/10/11 12:45:08;;;;;;;10.52;5.53;;;;;;;;;;5012218;28;20435;-69
2023/10/11 12:47:37;;;;;;;10.82;5.60;;;21.50;82.20;;;;;;5012301;28;20045;-69
2023/10/11 12:50:03;;;;;;;6.70;4.57;;;;;;;;;;5012183;28;20030;-70
2023/10/11 12:52:32;;;;;;;5.47;4.22;;;21.50;84.50;;;;;;5012134;28;20480;-70
2023/10/11 12:55:00;;;;;;;9.75;5.25;;;;;;;;;;5012049;28;20033;-69
2023/10/11 12:57:27;;;;;;;9.27;5.65;;;;;;;;;;5012048;28;20500;-70
2023/10/11 12:59:53;;;;;;;10.15;5.63;;;;;;;;;;5012544;28;20025;-70
2023/10/11 13:02:30;;;;;;;6.97;5.05;;;;;;;;;;5011889;28;20057;-70
2023/10/11 13:04:59;;;;;;;8.05;4.55;;;;;;;;;;5012196;28;20038;-70
2023/10/11 13:07:43;;;;;;;9.80;5.60;;;;;;;;;;5010516;28;20066;-70
2023/10/11 13:10:09;;;;;;;9.15;5.30;;;;;;;;;;5012131;28;20405;-69
2023/10/11 13:12:37;;;;;;;7.32;4.57;;;;;;;;;;5012031;28;20046;-69
2023/10/11 13:15:15;;;;;;;9.38;5.30;;;;;;;;;;5012133;28;20113;-70
2023/10/11 13:17:51;;;;;;;9.50;5.85;;;;;;;;;;5010492;28;20033;-70
2023/10/11 13:20:18;;;;;;;6.97;4.70;;;;;;;;;;5012037;28;20089;-70
2023/10/11 13:22:48;;;;;;;9.65;5.10;;;21.80;85.30;;;;;;5011802;28;20038;-71
2023/10/11 13:25:25;;;;;;;8.23;5.30;;;21.50;87.60;;;;;;5011675;28;20034;-71
2023/10/11 13:27:54;;;;;;;7.35;5.15;;;;;;;;;;5012331;28;20045;-70
2023/10/11 13:30:23;;;;;;;11.60;6.10;;;21.50;82.30;;;;;;5011767;28;20088;-70
2023/10/11 13:32:57;;;;;;;7.83;5.00;;;21.50;87.70;;;;;;5011861;28;20046;-70
2023/10/11 13:35:23;;;;;;;8.15;5.38;;;;;;;;;;5011722;28;20034;-70
2023/10/11 13:37:49;;;;;;;7.60;5.03;;;;;;;;;;5011826;28;20105;-69
2023/10/11 13:40:17;;;;;;;8.45;5.50;;;;;;;;;;5011631;28;20038;-69
2023/10/11 13:42:43;;;;;;;7.50;4.88;;;;;;;;;;5011786;28;20538;-69
2023/10/11 13:45:10;;;;;;;9.82;5.50;;;21.60;87.60;;;;;;5011636;28;20081;-69
2023/10/11 13:47:38;;;;;;;7.97;4.65;;;;;;;;;;5011877;28;20058;-69
2023/10/11 13:50:08;;;;;;;7.10;5.32;;;;;;;;;;5011542;28;20037;-69
2023/10/11 13:52:36;;;;;;;;;;;21.70;82.20;;;;;;5011998;28;20042;-69
2023/10/11 13:55:10;;;;;;;11.10;5.68;;;21.70;86.70;;;;;;5011596;28;19905;-68
2023/10/11 13:57:37;;;;;;;8.80;5.30;;;;;;;;;;5012235;28;20029;-69
2023/10/11 14:05:46;;;;;;;9.50;5.93;;;21.80;87.80;;;;;;4970783;28;20125;-69
2023/10/11 14:08:25;;;;;;;9.57;5.50;;;;;;;;;;4996405;28;20034;-68
2023/10/11 14:10:54;;;;;;;7.65;5.72;;;21.80;82.50;;;;;;5015216;28;20042;-68
2023/10/11 14:13:24;;;;;;;9.98;5.05;;;21.70;85.70;;;;;;5015106;28;20034;-69
2023/10/11 14:15:50;;;;;;;11.50;5.83;;;21.80;85.90;;;;;;5015129;28;20088;-69
2023/10/11 14:18:17;;;;;;;10.82;5.47;;;;;;;;;;5014890;28;20806;-69
2023/10/11 14:20:49;;;;;;;9.02;5.97;;;;;;;;;;5014898;28;20041;-68
2023/10/11 14:23:15;;;;;;;8.60;5.35;;;;;;;;;;5014849;28;20045;-69
2023/10/11 14:25:41;;;;;;;7.03;5.40;;;;;;;;;;5015032;28;20511;-69
2023/10/11 14:28:07;;;;;;;8.52;5.53;;;;;;;;;;5014668;28;20088;-68
2023/10/11 14:30:35;;;;;;;9.20;5.78;;;21.80;88.00;;;;;;5014577;28;20117;-68
2023/10/11 14:33:08;;;;;;;8.95;5.97;;;;;;;;;;5014524;28;20037;-69
2023/10/11 14:35:37;;;;;;;11.25;6.68;;;;;;;;;;5014854;28;20046;-69
2023/10/11 14:38:03;;;;;;;12.18;5.70;;;;;;;;;;5014482;28;20120;-68
2023/10/11 14:40:30;;;;;;;9.77;6.00;;;;;;;;;;5014257;28;20041;-69
2023/10/11 14:42:56;;;;;;;9.15;5.53;;;;;;;;;;5014422;28;20030;-69
2023/10/11 14:45:22;;;;;;;6.57;4.95;;;;;;;;;;5014164;28;20409;-69
2023/10/11 14:47:48;;;;;;;8.27;5.28;;;21.80;86.80;;;;;;5014239;28;20400;-69
2023/10/11 14:50:15;;;;;;;10.32;6.07;;;21.80;86.80;;;;;;5014397;28;20037;-68
2023/10/11 14:52:44;;;;;;;7.78;5.13;;;21.90;88.40;;;;;;5014819;28;20060;-69
2023/10/11 14:55:17;;;;;;;9.02;5.07;;;21.80;87.90;;;;;;5014195;28;20029;-68
2023/10/11 14:57:49;;;;;;;9.23;5.90;;;21.80;88.40;;;;;;5014200;28;20057;-69
2023/10/11 15:00:17;;;;;;;8.73;5.13;;;21.80;88.00;;;;;;5014409;28;20034;-69
2023/10/11 15:02:44;;;;;;;8.98;5.53;;;21.90;88.30;;;;;;4996530;28;20054;-69